createdAt,value
2023-04-15T00:00:56.878Z,4.30
2023-04-15T00:05:58.654Z,6.60
2023-04-15T00:11:03.155Z,4.38
2023-04-15T00:16:06.344Z,3.47
2023-04-15T00:21:08.021Z,3.97
2023-04-15T00:26:09.946Z,3.67
2023-04-15T00:31:12.188Z,4.13
2023-04-15T00:36:13.886Z,3.05
2023-04-15T00:41:15.652Z,3.85
2023-04-15T00:46:17.724Z,5.50
2023-04-15T00:51:20.068Z,3.10
2023-04-15T00:56:24.403Z,3.42
2023-04-15T01:01:26.828Z,2.45
2023-04-15T01:06:29.194Z,5.15
2023-04-15T01:11:33.579Z,3.10
2023-04-15T01:16:39.702Z,3.05
2023-04-15T01:21:41.635Z,2.85
2023-04-15T01:26:44.534Z,3.30
2023-04-15T01:31:52.236Z,4.13
2023-04-15T01:36:54.079Z,4.15
2023-04-15T01:41:57.489Z,4.10
2023-04-15T01:46:59.432Z,3.13
2023-04-15T01:52:02.001Z,3.80
2023-04-15T01:57:03.879Z,3.20
2023-04-15T02:02:05.743Z,4.43
2023-04-15T02:07:07.394Z,4.82
2023-04-15T02:12:10.407Z,4.13
2023-04-15T02:17:12.052Z,4.80
2023-04-15T02:22:18.417Z,5.43
2023-04-15T02:27:22.521Z,4.50
2023-04-15T02:32:25.609Z,4.55
2023-04-15T02:37:31.141Z,5.43
2023-04-15T02:42:33.328Z,5.63
2023-04-15T02:47:36.391Z,5.40
2023-04-15T02:52:41.873Z,5.00
2023-04-15T02:57:44.192Z,5.90
2023-04-15T03:02:47.034Z,5.40
2023-04-15T03:07:48.905Z,4.68
2023-04-15T03:12:51.044Z,5.78
2023-04-15T03:17:55.249Z,5.50
2023-04-15T03:22:57.154Z,4.53
2023-04-15T03:28:00.654Z,5.10
2023-04-15T03:33:02.729Z,4.18
2023-04-15T03:38:04.705Z,6.43
2023-04-15T03:43:06.357Z,4.35
2023-04-15T03:48:17.153Z,4.47
2023-04-15T03:53:21.422Z,4.75
2023-04-15T03:58:23.112Z,4.45
2023-04-15T04:03:24.934Z,5.72
2023-04-15T04:08:27.590Z,9.55
2023-04-15T04:13:29.245Z,4.10
2023-04-15T04:18:34.146Z,5.40
2023-04-15T04:23:35.762Z,5.72
2023-04-15T04:28:39.580Z,6.82
2023-04-15T04:33:41.382Z,6.43
2023-04-15T04:38:43.007Z,7.03
2023-04-15T04:43:44.613Z,8.13
2023-04-15T04:48:47.228Z,6.72
2023-04-15T04:53:48.879Z,7.32
2023-04-15T04:58:51.308Z,8.70
2023-04-15T05:03:53.444Z,5.68
2023-04-15T05:08:55.168Z,6.82
2023-04-15T05:13:58.086Z,7.50
2023-04-15T05:18:59.943Z,7.47
2023-04-15T05:24:01.919Z,7.38
2023-04-15T05:29:03.999Z,5.47
2023-04-15T05:34:07.119Z,7.50
2023-04-15T05:39:09.222Z,6.70
2023-04-15T05:44:11.042Z,7.00
2023-04-15T05:49:12.725Z,5.22
2023-04-15T05:54:14.462Z,5.10
2023-04-15T05:59:16.159Z,4.75
2023-04-15T06:04:17.963Z,3.38
2023-04-15T06:09:19.743Z,2.28
2023-04-15T06:14:21.392Z,2.72
2023-04-15T06:19:23.394Z,2.08
2023-04-15T06:24:25.221Z,1.38
2023-04-15T06:29:27.249Z,1.00
2023-04-15T06:34:28.853Z,1.40
2023-04-15T06:39:30.465Z,1.30
2023-04-15T06:44:33.779Z,1.08
2023-04-15T06:49:35.676Z,1.65
2023-04-15T06:54:37.644Z,1.50
2023-04-15T06:59:39.569Z,1.98
2023-04-15T07:04:41.324Z,1.80
2023-04-15T07:09:43.194Z,0.93
2023-04-15T07:14:45.131Z,1.58
2023-04-15T07:19:49.922Z,1.95
2023-04-15T07:24:51.698Z,1.38
2023-04-15T07:29:53.972Z,1.75
2023-04-15T07:34:55.572Z,1.83
2023-04-15T07:39:57.534Z,1.88
2023-04-15T07:44:59.202Z,1.60
2023-04-15T07:50:00.841Z,1.88
2023-04-15T07:55:02.448Z,1.30
2023-04-15T08:00:07.557Z,1.45
2023-04-15T08:05:16.023Z,1.52
2023-04-15T08:10:18.108Z,1.77
2023-04-15T08:15:20.696Z,2.15
2023-04-15T08:20:22.459Z,1.67
2023-04-15T08:25:24.098Z,1.83
2023-04-15T08:30:26.328Z,0.93
2023-04-15T08:35:27.967Z,0.90
2023-04-15T08:40:39.352Z,1.80
2023-04-15T08:45:42.551Z,1.30
2023-04-15T08:50:45.462Z,1.38
2023-04-15T08:55:52.776Z,2.85
2023-04-15T09:00:54.962Z,2.15
2023-04-15T09:05:57.573Z,1.55
2023-04-15T09:11:03.375Z,1.63
2023-04-15T09:16:05.878Z,2.90
2023-04-15T09:21:14.973Z,2.45
2023-04-15T09:26:17.024Z,4.05
2023-04-15T09:31:19.490Z,3.70
2023-04-15T09:36:21.426Z,3.50
2023-04-15T09:41:23.374Z,4.13
2023-04-15T09:46:44.083Z,5.60
2023-04-15T09:51:54.385Z,5.95
2023-04-15T09:57:12.321Z,5.07
2023-04-15T10:02:14.476Z,5.55
2023-04-15T10:07:20.524Z,5.35
2023-04-15T10:12:23.024Z,5.40
2023-04-15T10:17:31.128Z,5.25
2023-04-15T10:22:33.430Z,4.97
2023-04-15T10:27:36.830Z,4.63
2023-04-15T10:32:39.466Z,4.57
2023-04-15T10:37:41.363Z,5.82
2023-04-15T10:42:44.451Z,5.07
2023-04-15T10:47:46.167Z,4.72
2023-04-15T10:52:51.911Z,4.38
2023-04-15T10:57:55.075Z,5.85
2023-04-15T11:02:57.687Z,4.45
2023-04-15T11:07:59.463Z,5.15
2023-04-15T11:13:03.623Z,5.07
2023-04-15T11:18:14.442Z,4.75
2023-04-15T11:23:19.151Z,5.55
2023-04-15T11:28:20.845Z,6.07
2023-04-15T11:33:24.287Z,5.63
2023-04-15T11:38:25.910Z,3.83
2023-04-15T11:43:27.566Z,4.93
2023-04-15T11:48:34.391Z,3.47
2023-04-15T11:53:44.320Z,5.10
2023-04-15T11:58:46.693Z,2.90
2023-04-15T12:03:49.590Z,3.63
2023-04-15T12:09:06.899Z,4.05
2023-04-15T12:14:13.488Z,4.53
2023-04-15T12:19:17.103Z,2.65
2023-04-15T12:24:23.418Z,4.43
2023-04-15T12:29:27.602Z,3.70
2023-04-15T12:34:40.827Z,3.55
2023-04-15T12:39:44.350Z,2.88
2023-04-15T12:44:46.430Z,3.50
2023-04-15T12:49:49.611Z,2.85
2023-04-15T12:54:51.570Z,4.03
2023-04-15T12:59:53.474Z,3.83
2023-04-15T13:04:58.298Z,4.30
2023-04-15T13:09:59.948Z,3.60
2023-04-15T13:15:02.829Z,4.35
2023-04-15T13:20:06.298Z,3.33
2023-04-15T13:25:10.700Z,5.28
2023-04-15T13:30:15.284Z,4.05
2023-04-15T13:35:17.185Z,3.78
2023-04-15T13:40:20.083Z,3.65
2023-04-15T13:45:21.825Z,3.38
2023-04-15T13:50:23.792Z,4.63
2023-04-15T13:55:27.046Z,3.50
2023-04-15T14:00:29.184Z,2.80
2023-04-15T14:05:30.918Z,3.08
2023-04-15T14:10:32.622Z,3.55
2023-04-15T14:15:34.285Z,4.07
2023-04-15T14:20:35.963Z,3.72
2023-04-15T14:25:39.219Z,3.28
2023-04-15T14:30:40.990Z,3.88
2023-04-15T14:35:43.342Z,5.57
2023-04-15T14:40:45.310Z,4.63
2023-04-15T14:45:47.013Z,3.70
2023-04-15T14:50:48.764Z,2.92
2023-04-15T14:55:50.409Z,3.70
2023-04-15T15:00:52.018Z,3.92
2023-04-15T15:05:53.809Z,4.13
2023-04-15T15:10:55.640Z,4.03
2023-04-15T15:15:57.367Z,2.72
2023-04-15T15:20:59.040Z,2.72
2023-04-15T15:26:00.781Z,3.80
2023-04-15T15:31:02.493Z,4.97
2023-04-15T15:36:04.687Z,3.33
2023-04-15T15:41:06.350Z,3.63
2023-04-15T15:46:08.397Z,4.10
2023-04-15T15:51:10.332Z,4.13
2023-04-15T15:56:12.027Z,2.88
2023-04-15T16:01:13.742Z,2.63
2023-04-15T16:06:15.513Z,3.97
2023-04-15T16:11:17.300Z,3.00
2023-04-15T16:16:19.016Z,2.60
2023-04-15T16:21:20.842Z,3.33
2023-04-15T16:26:23.144Z,3.72
2023-04-15T16:31:24.942Z,2.65
2023-04-15T16:36:27.828Z,3.45
2023-04-15T16:41:29.520Z,4.20
2023-04-15T16:46:31.685Z,3.45
2023-04-15T16:51:33.384Z,3.80
2023-04-15T16:56:35.127Z,3.63
2023-04-15T17:01:36.772Z,3.65
2023-04-15T17:06:38.974Z,3.35
2023-04-15T17:11:40.736Z,2.53
2023-04-15T17:16:43.259Z,13.35
2023-04-15T17:21:44.875Z,5.60
2023-04-15T17:26:47.248Z,4.10
2023-04-15T17:31:48.996Z,4.22
2023-04-15T17:36:52.125Z,5.35
2023-04-15T17:41:53.767Z,5.60
2023-04-15T17:46:55.470Z,5.95
2023-04-15T17:51:57.690Z,4.93
2023-04-15T17:57:00.196Z,6.70
2023-04-15T18:02:02.146Z,7.78
2023-04-15T18:07:05.170Z,7.80
2023-04-15T18:12:07.767Z,7.22
2023-04-15T18:17:09.496Z,7.15
2023-04-15T18:22:11.108Z,10.77
2023-04-15T18:27:12.912Z,12.00
2023-04-15T18:32:17.440Z,9.32
2023-04-15T18:37:19.098Z,21.98
2023-04-15T18:42:21.659Z,10.15
2023-04-15T18:47:25.181Z,8.07
2023-04-15T18:52:28.167Z,9.63
2023-04-15T18:57:32.978Z,9.00
2023-04-15T19:02:36.677Z,17.58
2023-04-15T19:07:38.445Z,11.98
2023-04-15T19:12:40.348Z,11.50
2023-04-15T19:17:42.012Z,8.32
2023-04-15T19:22:44.743Z,8.45
2023-04-15T19:27:46.396Z,6.60
2023-04-15T19:32:48.156Z,9.57
2023-04-15T19:37:49.926Z,9.90
2023-04-15T19:42:51.560Z,8.90
2023-04-15T19:47:53.819Z,15.13
2023-04-15T19:52:55.634Z,17.55
2023-04-15T19:57:57.281Z,14.95
2023-04-15T20:02:59.061Z,12.50
2023-04-15T20:08:01.618Z,12.85
2023-04-15T20:13:03.483Z,14.25
2023-04-15T20:18:05.209Z,18.10
2023-04-15T20:23:06.942Z,16.55
2023-04-15T20:28:08.615Z,16.58
2023-04-15T20:33:10.268Z,55.50
2023-04-15T20:38:12.776Z,22.17
2023-04-15T20:43:14.556Z,20.50
2023-04-15T20:48:16.308Z,17.80
2023-04-15T20:53:17.921Z,13.68
2023-04-15T20:58:19.951Z,12.10
2023-04-15T21:03:21.928Z,17.38
2023-04-15T21:08:29.232Z,13.82
2023-04-15T21:13:30.940Z,15.20
2023-04-15T21:18:32.548Z,13.93
2023-04-15T21:23:35.993Z,21.30
2023-04-15T21:28:38.992Z,18.20
2023-04-15T21:33:40.609Z,18.23
2023-04-15T21:38:42.253Z,21.88
2023-04-15T21:43:43.932Z,16.48
2023-04-15T21:48:46.209Z,15.43
2023-04-15T21:53:48.205Z,19.95
2023-04-15T21:58:50.029Z,20.60
2023-04-15T22:03:51.835Z,20.48
2023-04-15T22:08:57.351Z,15.55
2023-04-15T22:13:59.494Z,14.05
2023-04-15T22:19:02.683Z,17.70
2023-04-15T22:24:32.461Z,20.10
2023-04-15T22:29:28.929Z,16.85
2023-04-15T22:34:30.588Z,12.90
2023-04-15T22:39:32.243Z,19.33
2023-04-15T22:44:33.919Z,14.20
2023-04-15T22:49:36.246Z,22.67
2023-04-15T22:54:37.945Z,21.45
2023-04-15T22:59:39.936Z,15.00
2023-04-15T23:04:41.699Z,28.77
2023-04-15T23:09:43.394Z,58.00
2023-04-15T23:14:45.062Z,51.13
2023-04-15T23:19:46.644Z,47.35
2023-04-15T23:24:48.271Z,50.85
2023-04-15T23:29:49.955Z,42.65
2023-04-15T23:34:52.252Z,43.58
2023-04-15T23:39:55.706Z,40.20
2023-04-15T23:44:57.407Z,39.60
2023-04-15T23:49:59.074Z,37.22
2023-04-15T23:55:00.911Z,36.25
